sensor_id;sensor_type;location;lat;lon;timestamp;pressure;altitude;pressure_sealevel;temperature;humidity
77776;BME280;73554;43.328;6.668;2024-01-30T00:00:26;102523.97;;;12.36;100.00
77776;BME280;73554;43.328;6.668;2024-01-30T00:02:51;102516.97;;;12.42;100.00
77776;BME280;73554;43.328;6.668;2024-01-30T00:05:17;102530.97;;;12.47;100.00
77776;BME280;73554;43.328;6.668;2024-01-30T00:07:43;102532.75;;;12.45;100.00
77776;BME280;73554;43.328;6.668;2024-01-30T00:10:08;102543.25;;;12.53;100.00
77776;BME280;73554;43.328;6.668;2024-01-30T00:12:34;102556.38;;;12.62;100.00
77776;BME280;73554;43.328;6.668;2024-01-30T00:15:00;102566.00;;;12.60;100.00
77776;BME280;73554;43.328;6.668;2024-01-30T00:17:25;102559.03;;;12.48;100.00
77776;BME280;73554;43.328;6.668;2024-01-30T00:19:51;102563.41;;;12.45;100.00
77776;BME280;73554;43.328;6.668;2024-01-30T00:22:19;102559.03;;;12.44;100.00
77776;BME280;73554;43.328;6.668;2024-01-30T00:24:45;102553.78;;;12.33;100.00
77776;BME280;73554;43.328;6.668;2024-01-30T00:27:10;102557.28;;;12.35;100.00
77776;BME280;73554;43.328;6.668;2024-01-30T00:29:38;102549.41;;;12.23;100.00
77776;BME280;73554;43.328;6.668;2024-01-30T00:32:04;102555.53;;;12.28;100.00
77776;BME280;73554;43.328;6.668;2024-01-30T00:34:30;102566.94;;;12.29;100.00
77776;BME280;73554;43.328;6.668;2024-01-30T00:36:56;102543.25;;;12.20;100.00
77776;BME280;73554;43.328;6.668;2024-01-30T00:39:22;102556.41;;;12.32;100.00
77776;BME280;73554;43.328;6.668;2024-01-30T00:41:47;102544.16;;;12.29;100.00
77776;BME280;73554;43.328;6.668;2024-01-30T00:44:13;102557.28;;;12.35;100.00
77776;BME280;73554;43.328;6.668;2024-01-30T00:46:39;102553.78;;;12.39;100.00
77776;BME280;73554;43.328;6.668;2024-01-30T00:49:05;102566.03;;;12.30;100.00
77776;BME280;73554;43.328;6.668;2024-01-30T00:51:31;102566.03;;;12.30;100.00
77776;BME280;73554;43.328;6.668;2024-01-30T00:53:56;102559.91;;;12.22;100.00
77776;BME280;73554;43.328;6.668;2024-01-30T00:56:22;102562.56;;;12.23;100.00
77776;BME280;73554;43.328;6.668;2024-01-30T00:58:49;102563.44;;;12.21;100.00
77776;BME280;73554;43.328;6.668;2024-01-30T01:01:15;102563.41;;;12.27;100.00
77776;BME280;73554;43.328;6.668;2024-01-30T01:03:40;102545.00;;;12.22;100.00
77776;BME280;73554;43.328;6.668;2024-01-30T01:06:09;102568.69;;;12.15;100.00
77776;BME280;73554;43.328;6.668;2024-01-30T01:08:34;102552.91;;;12.22;100.00
77776;BME280;73554;43.328;6.668;2024-01-30T01:11:00;102560.78;;;12.22;100.00
77776;BME280;73554;43.328;6.668;2024-01-30T01:13:26;102552.91;;;12.22;100.00
77776;BME280;73554;43.328;6.668;2024-01-30T01:15:52;102564.28;;;12.24;100.00
77776;BME280;73554;43.328;6.668;2024-01-30T01:18:21;102560.78;;;12.25;100.00
77776;BME280;73554;43.328;6.668;2024-01-30T01:20:51;102553.78;;;12.18;100.00
77776;BME280;73554;43.328;6.668;2024-01-30T01:23:16;102549.41;;;12.14;100.00
77776;BME280;73554;43.328;6.668;2024-01-30T01:25:42;102553.78;;;12.09;100.00
77776;BME280;73554;43.328;6.668;2024-01-30T01:28:08;102539.78;;;12.10;100.00
77776;BME280;73554;43.328;6.668;2024-01-30T01:30:34;102539.78;;;12.07;100.00
77776;BME280;73554;43.328;6.668;2024-01-30T01:32:59;102545.88;;;12.08;100.00
77776;BME280;73554;43.328;6.668;2024-01-30T01:35:27;102532.75;;;12.18;100.00
77776;BME280;73554;43.328;6.668;2024-01-30T01:37:53;102539.75;;;12.16;100.00
77776;BME280;73554;43.328;6.668;2024-01-30T01:40:25;102530.13;;;12.12;100.00
77776;BME280;73554;43.328;6.668;2024-01-30T01:42:51;102552.91;;;12.22;100.00
77776;BME280;73554;43.328;6.668;2024-01-30T01:45:20;102548.50;;;12.14;100.00
77776;BME280;73554;43.328;6.668;2024-01-30T01:47:55;102552.91;;;12.16;100.00
77776;BME280;73554;43.328;6.668;2024-01-30T01:50:21;102547.66;;;12.15;100.00
77776;BME280;73554;43.328;6.668;2024-01-30T01:52:50;102546.78;;;12.17;100.00
77776;BME280;73554;43.328;6.668;2024-01-30T01:55:17;102539.78;;;12.10;100.00
77776;BME280;73554;43.328;6.668;2024-01-30T01:57:46;102551.16;;;12.14;100.00
77776;BME280;73554;43.328;6.668;2024-01-30T02:00:12;102536.25;;;12.05;100.00
77776;BME280;73554;43.328;6.668;2024-01-30T02:02:39;102527.50;;;12.02;100.00
77776;BME280;73554;43.328;6.668;2024-01-30T02:05:04;102529.25;;;12.03;100.00
77776;BME280;73554;43.328;6.668;2024-01-30T02:07:30;102530.13;;;12.03;100.00
77776;BME280;73554;43.328;6.668;2024-01-30T02:09:56;102537.13;;;12.04;100.00
77776;BME280;73554;43.328;6.668;2024-01-30T02:12:22;102534.50;;;11.91;100.00
77776;BME280;73554;43.328;6.668;2024-01-30T02:14:48;102523.13;;;11.93;100.00
77776;BME280;73554;43.328;6.668;2024-01-30T02:17:15;102520.47;;;11.88;100.00
77776;BME280;73554;43.328;6.668;2024-01-30T02:19:41;102514.34;;;11.83;100.00
77776;BME280;73554;43.328;6.668;2024-01-30T02:22:07;102515.25;;;11.99;100.00
77776;BME280;73554;43.328;6.668;2024-01-30T02:24:33;102526.63;;;12.01;100.00
77776;BME280;73554;43.328;6.668;2024-01-30T02:26:59;102505.59;;;11.94;100.00
77776;BME280;73554;43.328;6.668;2024-01-30T02:29:24;102497.72;;;11.87;100.00
77776;BME280;73554;43.328;6.668;2024-01-30T02:31:50;102504.72;;;11.90;100.00
77776;BME280;73554;43.328;6.668;2024-01-30T02:34:18;102511.75;;;11.91;100.00
77776;BME280;73554;43.328;6.668;2024-01-30T02:36:44;102516.09;;;12.00;100.00
77776;BME280;73554;43.328;6.668;2024-01-30T02:39:10;102522.22;;;11.97;100.00
77776;BME280;73554;43.328;6.668;2024-01-30T02:41:36;102521.34;;;12.03;100.00
77776;BME280;73554;43.328;6.668;2024-01-30T02:44:03;102520.47;;;11.90;100.00
77776;BME280;73554;43.328;6.668;2024-01-30T02:46:29;102506.47;;;11.96;100.00
77776;BME280;73554;43.328;6.668;2024-01-30T02:48:55;102515.25;;;11.99;100.00
77776;BME280;73554;43.328;6.668;2024-01-30T02:51:23;102529.25;;;12.06;100.00
77776;BME280;73554;43.328;6.668;2024-01-30T02:53:49;102510.84;;;11.92;100.00
77776;BME280;73554;43.328;6.668;2024-01-30T02:56:18;102527.50;;;11.96;100.00
77776;BME280;73554;43.328;6.668;2024-01-30T02:58:44;102511.72;;;11.85;100.00
77776;BME280;73554;43.328;6.668;2024-01-30T03:01:09;102514.34;;;11.82;100.00
77776;BME280;73554;43.328;6.668;2024-01-30T03:03:35;102521.34;;;11.74;100.00
77776;BME280;73554;43.328;6.668;2024-01-30T03:06:01;102490.69;;;11.73;100.00
77776;BME280;73554;43.328;6.668;2024-01-30T03:08:27;102486.31;;;11.76;100.00
77776;BME280;73554;43.328;6.668;2024-01-30T03:10:53;102513.44;;;11.75;100.00
77776;BME280;73554;43.328;6.668;2024-01-30T03:13:19;102511.72;;;11.79;100.00
77776;BME280;73554;43.328;6.668;2024-01-30T03:15:45;102510.84;;;11.80;100.00
77776;BME280;73554;43.328;6.668;2024-01-30T03:18:10;102517.84;;;11.78;100.00
77776;BME280;73554;43.328;6.668;2024-01-30T03:20:36;102506.47;;;11.79;100.00
77776;BME280;73554;43.328;6.668;2024-01-30T03:23:02;102516.06;;;11.83;100.00
77776;BME280;73554;43.328;6.668;2024-01-30T03:25:28;102525.72;;;11.78;100.00
77776;BME280;73554;43.328;6.668;2024-01-30T03:27:53;102522.22;;;11.74;100.00
77776;BME280;73554;43.328;6.668;2024-01-30T03:30:19;102511.72;;;11.74;100.00
77776;BME280;73554;43.328;6.668;2024-01-30T03:32:45;102513.47;;;11.78;100.00
77776;BME280;73554;43.328;6.668;2024-01-30T03:35:10;102506.47;;;11.76;100.00
77776;BME280;73554;43.328;6.668;2024-01-30T03:37:36;102501.19;;;11.76;100.00
77776;BME280;73554;43.328;6.668;2024-01-30T03:40:02;102510.84;;;11.81;100.00
77776;BME280;73554;43.328;6.668;2024-01-30T03:42:28;102501.19;;;11.76;100.00
77776;BME280;73554;43.328;6.668;2024-01-30T03:44:54;102509.06;;;11.80;100.00
77776;BME280;73554;43.328;6.668;2024-01-30T03:47:20;102508.19;;;11.83;100.00
77776;BME280;73554;43.328;6.668;2024-01-30T03:49:46;102506.44;;;11.80;100.00
77776;BME280;73554;43.328;6.668;2024-01-30T03:52:12;102491.53;;;11.66;100.00
77776;BME280;73554;43.328;6.668;2024-01-30T03:54:40;102509.03;;;11.67;100.00
77776;BME280;73554;43.328;6.668;2024-01-30T03:57:06;102487.16;;;11.69;100.00
77776;BME280;73554;43.328;6.668;2024-01-30T03:59:32;102502.06;;;11.75;100.00
77776;BME280;73554;43.328;6.668;2024-01-30T04:01:58;102498.59;;;11.74;100.00
77776;BME280;73554;43.328;6.668;2024-01-30T04:04:24;102497.69;;;11.72;100.00
77776;BME280;73554;43.328;6.668;2024-01-30T04:06:50;102514.34;;;11.83;100.00
77776;BME280;73554;43.328;6.668;2024-01-30T04:09:16;102505.59;;;11.77;100.00
77776;BME280;73554;43.328;6.668;2024-01-30T04:11:42;102492.44;;;11.74;100.00
77776;BME280;73554;43.328;6.668;2024-01-30T04:14:08;102504.72;;;11.79;100.00
77776;BME280;73554;43.328;6.668;2024-01-30T04:16:34;102505.56;;;11.78;100.00
77776;BME280;73554;43.328;6.668;2024-01-30T04:18:59;102507.34;;;11.82;100.00
77776;BME280;73554;43.328;6.668;2024-01-30T04:21:25;102512.59;;;11.81;100.00
77776;BME280;73554;43.328;6.668;2024-01-30T04:23:51;102520.47;;;11.88;100.00
77776;BME280;73554;43.328;6.668;2024-01-30T04:26:17;102514.34;;;11.89;100.00
77776;BME280;73554;43.328;6.668;2024-01-30T04:28:44;102511.69;;;11.80;100.00
77776;BME280;73554;43.328;6.668;2024-01-30T04:31:10;102504.69;;;11.78;100.00
77776;BME280;73554;43.328;6.668;2024-01-30T04:33:36;102504.69;;;11.78;100.00
77776;BME280;73554;43.328;6.668;2024-01-30T04:36:02;102500.34;;;11.77;100.00
77776;BME280;73554;43.328;6.668;2024-01-30T04:38:28;102488.06;;;11.76;100.00
77776;BME280;73554;43.328;6.668;2024-01-30T04:40:57;102495.06;;;11.74;100.00
77776;BME280;73554;43.328;6.668;2024-01-30T04:43:22;102487.16;;;11.68;100.00
77776;BME280;73554;43.328;6.668;2024-01-30T04:45:49;102495.94;;;11.76;100.00
77776;BME280;73554;43.328;6.668;2024-01-30T04:48:14;102490.69;;;11.73;100.00
77776;BME280;73554;43.328;6.668;2024-01-30T04:50:40;102479.28;;;11.66;100.00
77776;BME280;73554;43.328;6.668;2024-01-30T04:53:06;102497.72;;;11.80;100.00
77776;BME280;73554;43.328;6.668;2024-01-30T04:55:33;102486.31;;;11.70;100.00
77776;BME280;73554;43.328;6.668;2024-01-30T04:57:58;102498.59;;;11.71;100.00
77776;BME280;73554;43.328;6.668;2024-01-30T05:00:25;102492.47;;;11.77;100.00
77776;BME280;73554;43.328;6.668;2024-01-30T05:02:50;102493.31;;;11.76;100.00
77776;BME280;73554;43.328;6.668;2024-01-30T05:05:16;102489.81;;;11.83;100.00
77776;BME280;73554;43.328;6.668;2024-01-30T05:07:42;102507.34;;;11.92;100.00
77776;BME280;73554;43.328;6.668;2024-01-30T05:10:07;102507.34;;;11.93;100.00
77776;BME280;73554;43.328;6.668;2024-01-30T05:12:33;102523.97;;;12.06;100.00
77776;BME280;73554;43.328;6.668;2024-01-30T05:14:59;102516.09;;;11.91;100.00
77776;BME280;73554;43.328;6.668;2024-01-30T05:17:25;102494.19;;;11.87;100.00
77776;BME280;73554;43.328;6.668;2024-01-30T05:19:50;102519.59;;;11.77;100.00
77776;BME280;73554;43.328;6.668;2024-01-30T05:22:16;102497.72;;;11.80;100.00
77776;BME280;73554;43.328;6.668;2024-01-30T05:24:44;102492.44;;;11.74;100.00
77776;BME280;73554;43.328;6.668;2024-01-30T05:27:10;102508.22;;;11.81;100.00
77776;BME280;73554;43.328;6.668;2024-01-30T05:29:35;102504.69;;;11.81;100.00
77776;BME280;73554;43.328;6.668;2024-01-30T05:32:02;102516.09;;;11.89;100.00
77776;BME280;73554;43.328;6.668;2024-01-30T05:34:28;102531.00;;;12.07;100.00
77776;BME280;73554;43.328;6.668;2024-01-30T05:36:53;102531.00;;;11.90;100.00
77776;BME280;73554;43.328;6.668;2024-01-30T05:39:19;102518.72;;;11.84;100.00
77776;BME280;73554;43.328;6.668;2024-01-30T05:41:45;102542.38;;;12.00;100.00
77776;BME280;73554;43.328;6.668;2024-01-30T05:44:11;102523.97;;;11.89;100.00
77776;BME280;73554;43.328;6.668;2024-01-30T05:46:37;102545.91;;;11.91;100.00
77776;BME280;73554;43.328;6.668;2024-01-30T05:49:03;102545.91;;;11.91;100.00
77776;BME280;73554;43.328;6.668;2024-01-30T05:51:28;102545.84;;;11.80;100.00
77776;BME280;73554;43.328;6.668;2024-01-30T05:53:54;102530.97;;;11.84;100.00
77776;BME280;73554;43.328;6.668;2024-01-30T05:56:20;102542.38;;;11.92;100.00
77776;BME280;73554;43.328;6.668;2024-01-30T05:58:45;102541.50;;;11.87;100.00
77776;BME280;73554;43.328;6.668;2024-01-30T06:01:11;102543.25;;;11.96;100.00
77776;BME280;73554;43.328;6.668;2024-01-30T06:03:37;102523.97;;;11.84;100.00
77776;BME280;73554;43.328;6.668;2024-01-30T06:06:02;102530.13;;;11.89;100.00
77776;BME280;73554;43.328;6.668;2024-01-30T06:08:28;102543.28;;;11.91;100.00
77776;BME280;73554;43.328;6.668;2024-01-30T06:10:54;102538.88;;;11.87;100.00
77776;BME280;73554;43.328;6.668;2024-01-30T06:13:19;102530.09;;;11.79;100.00
77776;BME280;73554;43.328;6.668;2024-01-30T06:15:45;102530.09;;;11.79;100.00
77776;BME280;73554;43.328;6.668;2024-01-30T06:18:10;102522.22;;;11.76;100.00
77776;BME280;73554;43.328;6.668;2024-01-30T06:20:36;102523.09;;;11.75;100.00
77776;BME280;73554;43.328;6.668;2024-01-30T06:23:01;102523.09;;;11.76;100.00
77776;BME280;73554;43.328;6.668;2024-01-30T06:25:30;102545.00;;;11.74;100.00
77776;BME280;73554;43.328;6.668;2024-01-30T06:39:17;102664.22;;;12.97;100.00
77776;BME280;73554;43.328;6.668;2024-01-30T06:41:47;102665.97;;;12.92;100.00
77776;BME280;73554;43.328;6.668;2024-01-30T06:44:13;102653.69;;;12.82;100.00
77776;BME280;73554;43.328;6.668;2024-01-30T06:46:38;102644.94;;;12.71;100.00
77776;BME280;73554;43.328;6.668;2024-01-30T06:49:04;102630.06;;;12.48;100.00
77776;BME280;73554;43.328;6.668;2024-01-30T06:51:29;102609.00;;;12.42;100.00
77776;BME280;73554;43.328;6.668;2024-01-30T06:53:55;102609.88;;;12.41;100.00
77776;BME280;73554;43.328;6.668;2024-01-30T06:56:20;102621.25;;;12.40;100.00
77776;BME280;73554;43.328;6.668;2024-01-30T06:58:50;102624.78;;;12.33;100.00
77776;BME280;73554;43.328;6.668;2024-01-30T07:01:15;102617.78;;;12.34;100.00
77776;BME280;73554;43.328;6.668;2024-01-30T07:03:41;102623.00;;;12.46;100.00
77776;BME280;73554;43.328;6.668;2024-01-30T07:06:07;102643.19;;;12.64;100.00
77776;BME280;73554;43.328;6.668;2024-01-30T07:08:33;102658.97;;;12.73;100.00
77776;BME280;73554;43.328;6.668;2024-01-30T07:10:59;102674.75;;;12.68;100.00
77776;BME280;73554;43.328;6.668;2024-01-30T07:13:24;102666.88;;;12.53;100.00
77776;BME280;73554;43.328;6.668;2024-01-30T07:15:50;102651.94;;;12.35;100.00
77776;BME280;73554;43.328;6.668;2024-01-30T07:18:15;102647.56;;;12.22;100.00
77776;BME280;73554;43.328;6.668;2024-01-30T07:20:41;102648.41;;;12.21;100.00
77776;BME280;73554;43.328;6.668;2024-01-30T07:23:12;102630.91;;;12.23;100.00
77776;BME280;73554;43.328;6.668;2024-01-30T07:25:42;102636.19;;;12.26;100.00
77776;BME280;73554;43.328;6.668;2024-01-30T07:28:08;102630.91;;;12.23;100.00
77776;BME280;73554;43.328;6.668;2024-01-30T07:30:35;102626.53;;;12.24;100.00
77776;BME280;73554;43.328;6.668;2024-01-30T07:33:00;102634.44;;;12.31;100.00
77776;BME280;73554;43.328;6.668;2024-01-30T07:35:26;102604.63;;;12.29;100.00
77776;BME280;73554;43.328;6.668;2024-01-30T07:37:51;102609.00;;;12.36;100.00
77776;BME280;73554;43.328;6.668;2024-01-30T07:40:17;102620.38;;;12.52;100.00
77776;BME280;73554;43.328;6.668;2024-01-30T07:42:42;102602.88;;;12.37;100.00
77776;BME280;73554;43.328;6.668;2024-01-30T07:45:08;102629.16;;;12.42;100.00
77776;BME280;73554;43.328;6.668;2024-01-30T07:47:34;102622.13;;;12.35;100.00
77776;BME280;73554;43.328;6.668;2024-01-30T07:49:59;102616.91;;;12.39;100.00
77776;BME280;73554;43.328;6.668;2024-01-30T07:52:25;102630.03;;;12.59;100.00
77776;BME280;73554;43.328;6.668;2024-01-30T07:54:51;102637.94;;;12.64;100.00
77776;BME280;73554;43.328;6.668;2024-01-30T07:57:16;102638.78;;;12.69;100.00
77776;BME280;73554;43.328;6.668;2024-01-30T07:59:43;102641.44;;;12.75;100.00
77776;BME280;73554;43.328;6.668;2024-01-30T08:02:12;102644.94;;;12.86;100.00
77776;BME280;73554;43.328;6.668;2024-01-30T08:04:43;102623.88;;;12.83;100.00
77776;BME280;73554;43.328;6.668;2024-01-30T08:07:09;102658.94;;;13.03;100.00
77776;BME280;73554;43.328;6.668;2024-01-30T08:09:34;102663.31;;;13.15;100.00
77776;BME280;73554;43.328;6.668;2024-01-30T08:11:59;102676.44;;;13.34;100.00
77776;BME280;73554;43.328;6.668;2024-01-30T08:14:25;102681.69;;;13.37;100.00
77776;BME280;73554;43.328;6.668;2024-01-30T08:16:51;102680.81;;;13.34;100.00
77776;BME280;73554;43.328;6.668;2024-01-30T08:19:16;102685.22;;;13.33;100.00
77776;BME280;73554;43.328;6.668;2024-01-30T08:21:42;102668.56;;;13.30;100.00
77776;BME280;73554;43.328;6.668;2024-01-30T08:24:07;102665.94;;;13.27;100.00
77776;BME280;73554;43.328;6.668;2024-01-30T08:26:33;102661.53;;;13.35;100.00
77776;BME280;73554;43.328;6.668;2024-01-30T08:28:59;102676.41;;;13.42;100.00
77776;BME280;73554;43.328;6.668;2024-01-30T08:31:25;102672.03;;;13.41;100.00
77776;BME280;73554;43.328;6.668;2024-01-30T08:33:50;102676.41;;;13.45;100.00
77776;BME280;73554;43.328;6.668;2024-01-30T08:36:17;102680.81;;;13.43;100.00
77776;BME280;73554;43.328;6.668;2024-01-30T08:38:42;102673.78;;;13.43;100.00
77776;BME280;73554;43.328;6.668;2024-01-30T08:41:08;102679.03;;;13.42;100.00
77776;BME280;73554;43.328;6.668;2024-01-30T08:43:33;102675.56;;;13.41;100.00
77776;BME280;73554;43.328;6.668;2024-01-30T08:46:00;102672.91;;;13.37;100.00
77776;BME280;73554;43.328;6.668;2024-01-30T08:48:25;102664.22;;;13.17;100.00
77776;BME280;73554;43.328;6.668;2024-01-30T08:50:51;102637.00;;;13.12;100.00
77776;BME280;73554;43.328;6.668;2024-01-30T08:53:16;102636.13;;;13.16;100.00
77776;BME280;73554;43.328;6.668;2024-01-30T08:55:42;102640.53;;;13.17;100.00
77776;BME280;73554;43.328;6.668;2024-01-30T08:58:07;102637.88;;;13.17;100.00
77776;BME280;73554;43.328;6.668;2024-01-30T09:00:33;102622.06;;;13.09;100.00
77776;BME280;73554;43.328;6.668;2024-01-30T09:02:58;102628.22;;;13.02;100.00
77776;BME280;73554;43.328;6.668;2024-01-30T09:05:24;102605.44;;;12.95;100.00
77776;BME280;73554;43.328;6.668;2024-01-30T09:07:49;102616.84;;;12.86;100.00
77776;BME280;73554;43.328;6.668;2024-01-30T09:10:15;102577.44;;;12.62;100.00
77776;BME280;73554;43.328;6.668;2024-01-30T09:12:41;102587.94;;;12.70;100.00
77776;BME280;73554;43.328;6.668;2024-01-30T09:15:06;102579.19;;;12.62;100.00
77776;BME280;73554;43.328;6.668;2024-01-30T09:17:32;102576.53;;;12.60;100.00
77776;BME280;73554;43.328;6.668;2024-01-30T09:19:58;102570.41;;;12.61;100.00
77776;BME280;73554;43.328;6.668;2024-01-30T09:22:24;102558.13;;;12.66;100.00
77776;BME280;73554;43.328;6.668;2024-01-30T09:24:49;102545.84;;;12.73;100.00
77776;BME280;73554;43.328;6.668;2024-01-30T09:27:15;102557.22;;;12.81;100.00
77776;BME280;73554;43.328;6.668;2024-01-30T09:29:40;102552.84;;;12.78;100.00
77776;BME280;73554;43.328;6.668;2024-01-30T09:32:06;102532.69;;;12.64;100.00
77776;BME280;73554;43.328;6.668;2024-01-30T09:34:32;102553.69;;;12.80;100.00
77776;BME280;73554;43.328;6.668;2024-01-30T09:36:58;102561.59;;;12.86;100.00
77776;BME280;73554;43.328;6.668;2024-01-30T09:39:25;102566.84;;;12.86;100.00
77776;BME280;73554;43.328;6.668;2024-01-30T09:42:09;102576.50;;;12.89;100.00
77776;BME280;73554;43.328;6.668;2024-01-30T09:44:37;102579.09;;;12.90;100.00
77776;BME280;73554;43.328;6.668;2024-01-30T09:47:03;102589.59;;;12.98;100.00
77776;BME280;73554;43.328;6.668;2024-01-30T09:49:34;102595.75;;;13.01;100.00
77776;BME280;73554;43.328;6.668;2024-01-30T09:52:03;102597.50;;;13.04;100.00
77776;BME280;73554;43.328;6.668;2024-01-30T09:54:31;102608.91;;;13.09;100.00
77776;BME280;73554;43.328;6.668;2024-01-30T09:56:57;102606.28;;;13.09;100.00
77776;BME280;73554;43.328;6.668;2024-01-30T09:59:23;102598.34;;;13.06;100.00
77776;BME280;73554;43.328;6.668;2024-01-30T10:01:50;102591.38;;;13.02;100.00
77776;BME280;73554;43.328;6.668;2024-01-30T10:04:15;102587.88;;;13.03;100.00
77776;BME280;73554;43.328;6.668;2024-01-30T10:06:41;102579.09;;;13.07;100.00
77776;BME280;73554;43.328;6.668;2024-01-30T10:09:07;102576.44;;;13.01;100.00
77776;BME280;73554;43.328;6.668;2024-01-30T10:11:33;102579.97;;;13.03;100.00
77776;BME280;73554;43.328;6.668;2024-01-30T10:14:00;102575.56;;;13.03;100.00
77776;BME280;73554;43.328;6.668;2024-01-30T10:16:25;102558.03;;;13.02;100.00
77776;BME280;73554;43.328;6.668;2024-01-30T10:18:50;102543.09;;;13.09;100.00
77776;BME280;73554;43.328;6.668;2024-01-30T10:21:16;102540.47;;;13.14;100.00
77776;BME280;73554;43.328;6.668;2024-01-30T10:23:43;102510.47;;;13.43;100.00
77776;BME280;73554;43.328;6.668;2024-01-30T10:26:09;102519.13;;;13.62;100.00
77776;BME280;73554;43.328;6.668;2024-01-30T10:28:35;102538.31;;;13.82;100.00
77776;BME280;73554;43.328;6.668;2024-01-30T10:31:02;102550.31;;;14.19;100.00
77776;BME280;73554;43.328;6.668;2024-01-30T10:33:30;102570.25;;;14.54;100.00
77776;BME280;73554;43.328;6.668;2024-01-30T10:36:03;102577.84;;;14.89;100.00
77776;BME280;73554;43.328;6.668;2024-01-30T10:38:30;102604.81;;;15.15;100.00
77776;BME280;73554;43.328;6.668;2024-01-30T10:40:57;102623.94;;;15.38;100.00
77776;BME280;73554;43.328;6.668;2024-01-30T10:43:24;102628.91;;;15.65;100.00
77776;BME280;73554;43.328;6.668;2024-01-30T10:45:56;102650.44;;;16.00;100.00
77776;BME280;73554;43.328;6.668;2024-01-30T10:48:26;102669.59;;;16.16;100.00
77776;BME280;73554;43.328;6.668;2024-01-30T10:50:55;102694.06;;;16.32;100.00
77776;BME280;73554;43.328;6.668;2024-01-30T10:53:23;102702.25;;;16.17;100.00
77776;BME280;73554;43.328;6.668;2024-01-30T10:55:51;102695.50;;;15.93;100.00
77776;BME280;73554;43.328;6.668;2024-01-30T10:58:17;102654.38;;;15.71;100.00
77776;BME280;73554;43.328;6.668;2024-01-30T11:00:44;102639.28;;;15.77;100.00
77776;BME280;73554;43.328;6.668;2024-01-30T11:03:11;102627.69;;;15.89;100.00
77776;BME280;73554;43.328;6.668;2024-01-30T11:05:40;102653.94;;;16.01;100.00
77776;BME280;73554;43.328;6.668;2024-01-30T11:08:22;102676.09;;;15.95;100.00
77776;BME280;73554;43.328;6.668;2024-01-30T11:10:49;102660.19;;;15.97;100.00
77776;BME280;73554;43.328;6.668;2024-01-30T11:13:15;102648.09;;;15.78;100.00
77776;BME280;73554;43.328;6.668;2024-01-30T11:15:40;102644.75;;;15.65;100.00
77776;BME280;73554;43.328;6.668;2024-01-30T11:18:06;102638.78;;;15.50;100.00
77776;BME280;73554;43.328;6.668;2024-01-30T11:20:32;102646.53;;;15.63;100.00
77776;BME280;73554;43.328;6.668;2024-01-30T11:22:58;102632.50;;;15.60;100.00
77776;BME280;73554;43.328;6.668;2024-01-30T11:25:25;102627.06;;;15.70;100.00
77776;BME280;73554;43.328;6.668;2024-01-30T11:27:55;102636.72;;;15.73;100.00
77776;BME280;73554;43.328;6.668;2024-01-30T11:30:29;102625.38;;;15.63;100.00
77776;BME280;73554;43.328;6.668;2024-01-30T11:33:01;102612.47;;;15.36;100.00
77776;BME280;73554;43.328;6.668;2024-01-30T11:35:31;102598.66;;;15.16;100.00
77776;BME280;73554;43.328;6.668;2024-01-30T11:37:58;102584.66;;;15.08;100.00
77776;BME280;73554;43.328;6.668;2024-01-30T11:40:28;102573.03;;;15.24;100.00
77776;BME280;73554;43.328;6.668;2024-01-30T11:42:58;102602.72;;;15.41;100.00
77776;BME280;73554;43.328;6.668;2024-01-30T11:45:24;102626.28;;;15.62;100.00
77776;BME280;73554;43.328;6.668;2024-01-30T11:47:50;102597.25;;;15.58;100.00
77776;BME280;73554;43.328;6.668;2024-01-30T11:50:16;102619.06;;;15.75;100.00
77776;BME280;73554;43.328;6.668;2024-01-30T11:52:41;102649.63;;;15.95;100.00
77776;BME280;73554;43.328;6.668;2024-01-30T11:55:09;102661.03;;;16.00;100.00
77776;BME280;73554;43.328;6.668;2024-01-30T11:57:34;102668.72;;;16.16;100.00
77776;BME280;73554;43.328;6.668;2024-01-30T12:00:04;102672.75;;;15.81;100.00
77776;BME280;73554;43.328;6.668;2024-01-30T12:02:39;102627.84;;;15.77;100.00
77776;BME280;73554;43.328;6.668;2024-01-30T12:05:06;102655.25;;;15.71;100.00
77776;BME280;73554;43.328;6.668;2024-01-30T12:07:32;102647.19;;;15.82;100.00
77776;BME280;73554;43.328;6.668;2024-01-30T12:09:58;102640.81;;;15.95;100.00
77776;BME280;73554;43.328;6.668;2024-01-30T12:12:25;102652.16;;;16.03;100.00
77776;BME280;73554;43.328;6.668;2024-01-30T12:14:51;102649.41;;;16.11;100.00
77776;BME280;73554;43.328;6.668;2024-01-30T12:17:31;102658.19;;;16.13;100.00
77776;BME280;73554;43.328;6.668;2024-01-30T12:20:07;102667.88;;;16.14;100.00
77776;BME280;73554;43.328;6.668;2024-01-30T12:22:37;102670.72;;;15.98;100.00
77776;BME280;73554;43.328;6.668;2024-01-30T12:25:16;102651.44;;;15.90;100.00
77776;BME280;73554;43.328;6.668;2024-01-30T12:27:43;102649.13;;;15.68;100.00
77776;BME280;73554;43.328;6.668;2024-01-30T12:30:10;102629.31;;;15.29;100.00
77776;BME280;73554;43.328;6.668;2024-01-30T12:32:46;102602.03;;;15.27;100.00
77776;BME280;73554;43.328;6.668;2024-01-30T12:35:17;102604.75;;;15.21;100.00
77776;BME280;73554;43.328;6.668;2024-01-30T12:37:44;102571.56;;;14.99;100.00
77776;BME280;73554;43.328;6.668;2024-01-30T12:40:11;102562.91;;;14.84;100.00
77776;BME280;73554;43.328;6.668;2024-01-30T12:42:39;102542.72;;;14.79;100.00
77776;BME280;73554;43.328;6.668;2024-01-30T12:45:05;102506.59;;;14.82;100.00
77776;BME280;73554;43.328;6.668;2024-01-30T12:47:31;102507.66;;;14.69;100.00